MSC Lea — 9HA2639 — position and weather

sailwx.info

Track history (hours):
 
Tides and Currents Weather Stations Pressure Air Temp Water Temp Dewpoint Dewpoint Depression Visibility Wind Speed Wind Dir Waves Ship Positions

MSC Lea

Last reported at 2017-Feb-22 03:33 UTC. Time now 2017-Feb-22 04:09 UTC.
Position N 45°27' E 012°15'.

Length 217 m; draft 8.9 m.

Type: Ship (hazmat cat A). MMSI: 215101000.

Date/timePositionNaut miles runAvg speedWind from/ knotsBaromVisibWave heightAir tempDewpointWater temp
2017-Feb-22 03:33N 45°27' E 012°15'0 0.0
2017-Feb-22 02:31N 45°27' E 012°15'0 0.0
2017-Feb-22 01:32N 45°27' E 012°15'0 0.0
2017-Feb-22 00:32N 45°27' E 012°15'0 0.0
2017-Feb-21 23:33N 45°27' E 012°15'0 0.0
2017-Feb-21 22:31N 45°27' E 012°15'0 0.0
2017-Feb-21 21:32N 45°27' E 012°15'0 0.0
2017-Feb-21 20:32N 45°27' E 012°15'0 0.0
2017-Feb-21 19:33N 45°27' E 012°15'4 3.8
2017-Feb-21 18:33N 45°24' E 012°16'7 6.8
2017-Feb-21 17:34N 45°20' E 012°24'6 5.5
2017-Feb-21 16:34N 45°18' E 012°31'7 7.4
2017-Feb-21 15:34N 45°13' E 012°40'1010.0
2017-Feb-21 14:33N 45°07' E 012°50'1010.2
2017-Feb-21 13:33N 44°58' E 012°57'1010.1
2017-Feb-21 12:33N 44°49' E 012°51'1010.4
2017-Feb-21 11:33N 44°39' E 012°45'10 9.9
2017-Feb-21 10:33N 44°30' E 012°40'1010.0
2017-Feb-21 09:33N 44°30' E 012°26'8 0.6
2017-Feb-20 19:12N 44°27' E 012°15'0 0.0
2017-Feb-20 18:33N 44°27' E 012°15'0 0.0
2017-Feb-20 17:31N 44°27' E 012°15'6 0.8
2017-Feb-20 10:31N 44°30' E 012°21'6 5.2
2017-Feb-20 09:26N 44°30' E 012°29'0 0.0
2017-Feb-20 08:06N 44°30' E 012°29'0 0.0
2017-Feb-20 07:28N 44°30' E 012°29'0 0.0
2017-Feb-20 05:32N 44°30' E 012°29'0 0.0
2017-Feb-19 23:33N 44°30' E 012°29'0 0.0
2017-Feb-19 19:33N 44°30' E 012°29'0 0.0
2017-Feb-19 18:33N 44°30' E 012°29'0 0.3
2017-Feb-19 17:33N 44°30' E 012°30'1110.2
2017-Feb-19 16:28N 44°37' E 012°41'1313.8
2017-Feb-19 15:33N 44°49' E 012°48'1312.9
2017-Feb-19 14:33N 44°59' E 012°59'1313.1
2017-Feb-19 13:33N 45°12' E 013°01'1313.3
2017-Feb-19 12:34N 45°25' E 013°02'1313.4
2017-Feb-19 11:33N 45°33' E 013°18'1414.0
2017-Feb-19 10:33N 45°39' E 013°36'7 5.8
2017-Feb-19 09:22N 45°38' E 013°46'0 0.0
2017-Feb-19 08:32N 45°38' E 013°46'0 0.0
2017-Feb-19 07:32N 45°38' E 013°46'0 0.0
2017-Feb-19 06:33N 45°38' E 013°46'0 0.0
2017-Feb-19 05:31N 45°38' E 013°46'0 0.0
2017-Feb-19 04:28N 45°38' E 013°46'0 0.0
2017-Feb-19 03:23N 45°38' E 013°46'0 0.0
2017-Feb-19 02:33N 45°38' E 013°46'0 0.0
2017-Feb-19 01:33N 45°38' E 013°46'0 0.0
2017-Feb-19 00:31N 45°38' E 013°46'0 0.0
2017-Feb-18 23:29N 45°38' E 013°46'0 0.0
2017-Feb-18 22:29N 45°38' E 013°46'0 0.0
2017-Feb-18 21:30N 45°38' E 013°46'0 0.0
2017-Feb-18 20:31N 45°38' E 013°46'0 0.0
2017-Feb-18 19:28N 45°38' E 013°46'0 0.0
2017-Feb-18 18:32N 45°38' E 013°46'0 0.0
2017-Feb-18 17:33N 45°38' E 013°46'4 4.1
2017-Feb-18 16:33N 45°39' E 013°40'6 6.1
2017-Feb-18 15:33N 45°33' E 013°43'1 0.6
2017-Feb-18 14:33N 45°33' E 013°44'0 0.0
2017-Feb-18 13:33N 45°33' E 013°44'0 0.0
2017-Feb-18 12:28N 45°33' E 013°44'0 0.0
2017-Feb-18 11:32N 45°33' E 013°44'0 0.0
2017-Feb-18 10:32N 45°33' E 013°44'0 0.0
2017-Feb-18 09:33N 45°33' E 013°44'0 0.0
2017-Feb-18 08:31N 45°33' E 013°44'0 0.0
2017-Feb-18 07:31N 45°33' E 013°44'0 0.0
2017-Feb-18 06:32N 45°33' E 013°44'0 0.0
2017-Feb-18 05:33N 45°33' E 013°44'0 0.0
2017-Feb-18 04:33N 45°33' E 013°44'6 5.7
2017-Feb-18 03:33N 45°35' E 013°36'1312.7
2017-Feb-18 02:33N 45°29' E 013°20'1212.2
2017-Feb-18 01:33N 45°18' E 013°13'1413.6
2017-Feb-18 00:33N 45°04' E 013°17'1413.5
2017-Feb-17 23:33N 44°53' E 013°27'1313.4
2017-Feb-17 22:33N 44°41' E 013°37'1413.4
2017-Feb-17 21:33N 44°30' E 013°47'1413.7
2017-Feb-17 20:33N 44°18' E 013°58'1413.7
2017-Feb-17 19:33N 44°07' E 014°09'27214.0
2017-Feb-17 00:10N 40°43' E 018°12'  
2017-Feb-13 21:18N 31°52' E 034°38'0 0.0
2017-Feb-13 03:28N 31°52' E 034°38'14 5.8
2017-Feb-13 01:04N 32°04' E 034°31'610.9
2017-Feb-13 00:33N 32°10' E 034°33'1110.6
2017-Feb-12 23:33N 32°20' E 034°37'3310.9
2017-Feb-12 20:31N 32°51' E 034°48'7 7.3
2017-Feb-12 19:33N 32°53' E 034°57'5 5.4
2017-Feb-12 18:33N 32°49' E 035°01'0 0.0
2017-Feb-12 17:31N 32°49' E 035°01'0 0.0
2017-Feb-12 16:32N 32°49' E 035°01'0 0.0
2017-Feb-12 15:33N 32°49' E 035°01'0 0.0
2017-Feb-12 14:33N 32°49' E 035°01'0 0.0
2017-Feb-12 13:31N 32°49' E 035°01'0 0.0
2017-Feb-12 12:32N 32°49' E 035°01'0 0.0
2017-Feb-12 11:32N 32°49' E 035°01'0 0.0
2017-Feb-12 10:30N 32°49' E 035°01'0 0.0
2017-Feb-12 09:31N 32°49' E 035°01'0 0.0
2017-Feb-12 08:31N 32°49' E 035°01'0 0.0
2017-Feb-12 07:32N 32°49' E 035°01'0 0.0
2017-Feb-12 06:33N 32°49' E 035°01'0 0.0
2017-Feb-12 05:33N 32°49' E 035°01'0 0.2
2017-Feb-12 04:33N 32°49' E 035°01'4 4.2
2017-Feb-12 03:33N 32°52' E 034°57'  
Track history (hours):
 
Tides and Currents Weather Stations Pressure Air Temp Water Temp Dewpoint Dewpoint Depression Visibility Wind Speed Wind Dir Waves Ship Positions

MSC Lea

Last reported at 2017-Feb-22 03:33 UTC. Time now 2017-Feb-22 04:09 UTC.
Position N 45°27' E 012°15'.

Length 217 m; draft 8.9 m.

Type: Ship (hazmat cat A). MMSI: 215101000.

Date/timePositionNaut miles runAvg speedWind from/ knotsBaromVisibWave heightAir tempDewpointWater temp
2017-Feb-22 03:33N 45°27' E 012°15'0 0.0
2017-Feb-22 02:31N 45°27' E 012°15'0 0.0
2017-Feb-22 01:32N 45°27' E 012°15'0 0.0
2017-Feb-22 00:32N 45°27' E 012°15'0 0.0
2017-Feb-21 23:33N 45°27' E 012°15'0 0.0
2017-Feb-21 22:31N 45°27' E 012°15'0 0.0
2017-Feb-21 21:32N 45°27' E 012°15'0 0.0
2017-Feb-21 20:32N 45°27' E 012°15'0 0.0
2017-Feb-21 19:33N 45°27' E 012°15'4 3.8
2017-Feb-21 18:33N 45°24' E 012°16'7 6.8
2017-Feb-21 17:34N 45°20' E 012°24'6 5.5
2017-Feb-21 16:34N 45°18' E 012°31'7 7.4
2017-Feb-21 15:34N 45°13' E 012°40'1010.0
2017-Feb-21 14:33N 45°07' E 012°50'1010.2
2017-Feb-21 13:33N 44°58' E 012°57'1010.1
2017-Feb-21 12:33N 44°49' E 012°51'1010.4
2017-Feb-21 11:33N 44°39' E 012°45'10 9.9
2017-Feb-21 10:33N 44°30' E 012°40'1010.0
2017-Feb-21 09:33N 44°30' E 012°26'8 0.6
2017-Feb-20 19:12N 44°27' E 012°15'0 0.0
2017-Feb-20 18:33N 44°27' E 012°15'0 0.0
2017-Feb-20 17:31N 44°27' E 012°15'6 0.8
2017-Feb-20 10:31N 44°30' E 012°21'6 5.2
2017-Feb-20 09:26N 44°30' E 012°29'0 0.0
2017-Feb-20 08:06N 44°30' E 012°29'0 0.0
2017-Feb-20 07:28N 44°30' E 012°29'0 0.0
2017-Feb-20 05:32N 44°30' E 012°29'0 0.0
2017-Feb-19 23:33N 44°30' E 012°29'0 0.0
2017-Feb-19 19:33N 44°30' E 012°29'0 0.0
2017-Feb-19 18:33N 44°30' E 012°29'0 0.3
2017-Feb-19 17:33N 44°30' E 012°30'1110.2
2017-Feb-19 16:28N 44°37' E 012°41'1313.8
2017-Feb-19 15:33N 44°49' E 012°48'1312.9
2017-Feb-19 14:33N 44°59' E 012°59'1313.1
2017-Feb-19 13:33N 45°12' E 013°01'1313.3
2017-Feb-19 12:34N 45°25' E 013°02'1313.4
2017-Feb-19 11:33N 45°33' E 013°18'1414.0
2017-Feb-19 10:33N 45°39' E 013°36'7 5.8
2017-Feb-19 09:22N 45°38' E 013°46'0 0.0
2017-Feb-19 08:32N 45°38' E 013°46'0 0.0
2017-Feb-19 07:32N 45°38' E 013°46'0 0.0
2017-Feb-19 06:33N 45°38' E 013°46'0 0.0
2017-Feb-19 05:31N 45°38' E 013°46'0 0.0
2017-Feb-19 04:28N 45°38' E 013°46'0 0.0
2017-Feb-19 03:23N 45°38' E 013°46'0 0.0
2017-Feb-19 02:33N 45°38' E 013°46'0 0.0
2017-Feb-19 01:33N 45°38' E 013°46'0 0.0
2017-Feb-19 00:31N 45°38' E 013°46'0 0.0
2017-Feb-18 23:29N 45°38' E 013°46'0 0.0
2017-Feb-18 22:29N 45°38' E 013°46'0 0.0
2017-Feb-18 21:30N 45°38' E 013°46'0 0.0
2017-Feb-18 20:31N 45°38' E 013°46'0 0.0
2017-Feb-18 19:28N 45°38' E 013°46'0 0.0
2017-Feb-18 18:32N 45°38' E 013°46'0 0.0
2017-Feb-18 17:33N 45°38' E 013°46'4 4.1
2017-Feb-18 16:33N 45°39' E 013°40'6 6.1
2017-Feb-18 15:33N 45°33' E 013°43'1 0.6
2017-Feb-18 14:33N 45°33' E 013°44'0 0.0
2017-Feb-18 13:33N 45°33' E 013°44'0 0.0
2017-Feb-18 12:28N 45°33' E 013°44'0 0.0
2017-Feb-18 11:32N 45°33' E 013°44'0 0.0
2017-Feb-18 10:32N 45°33' E 013°44'0 0.0
2017-Feb-18 09:33N 45°33' E 013°44'0 0.0
2017-Feb-18 08:31N 45°33' E 013°44'0 0.0
2017-Feb-18 07:31N 45°33' E 013°44'0 0.0
2017-Feb-18 06:32N 45°33' E 013°44'0 0.0
2017-Feb-18 05:33N 45°33' E 013°44'0 0.0
2017-Feb-18 04:33N 45°33' E 013°44'6 5.7
2017-Feb-18 03:33N 45°35' E 013°36'1312.7
2017-Feb-18 02:33N 45°29' E 013°20'1212.2
2017-Feb-18 01:33N 45°18' E 013°13'1413.6
2017-Feb-18 00:33N 45°04' E 013°17'1413.5
2017-Feb-17 23:33N 44°53' E 013°27'1313.4
2017-Feb-17 22:33N 44°41' E 013°37'1413.4
2017-Feb-17 21:33N 44°30' E 013°47'1413.7
2017-Feb-17 20:33N 44°18' E 013°58'1413.7
2017-Feb-17 19:33N 44°07' E 014°09'27214.0
2017-Feb-17 00:10N 40°43' E 018°12'  
2017-Feb-13 21:18N 31°52' E 034°38'0 0.0
2017-Feb-13 03:28N 31°52' E 034°38'14 5.8
2017-Feb-13 01:04N 32°04' E 034°31'610.9
2017-Feb-13 00:33N 32°10' E 034°33'1110.6
2017-Feb-12 23:33N 32°20' E 034°37'3310.9
2017-Feb-12 20:31N 32°51' E 034°48'7 7.3
2017-Feb-12 19:33N 32°53' E 034°57'5 5.4
2017-Feb-12 18:33N 32°49' E 035°01'0 0.0
2017-Feb-12 17:31N 32°49' E 035°01'0 0.0
2017-Feb-12 16:32N 32°49' E 035°01'0 0.0
2017-Feb-12 15:33N 32°49' E 035°01'0 0.0
2017-Feb-12 14:33N 32°49' E 035°01'0 0.0
2017-Feb-12 13:31N 32°49' E 035°01'0 0.0
2017-Feb-12 12:32N 32°49' E 035°01'0 0.0
2017-Feb-12 11:32N 32°49' E 035°01'0 0.0
2017-Feb-12 10:30N 32°49' E 035°01'0 0.0
2017-Feb-12 09:31N 32°49' E 035°01'0 0.0
2017-Feb-12 08:31N 32°49' E 035°01'0 0.0
2017-Feb-12 07:32N 32°49' E 035°01'0 0.0
2017-Feb-12 06:33N 32°49' E 035°01'0 0.0
2017-Feb-12 05:33N 32°49' E 035°01'0 0.2
2017-Feb-12 04:33N 32°49' E 035°01'4 4.2
2017-Feb-12 03:33N 32°52' E 034°57'  

Dump ship's entire track history